Attawapiskat Airport

CYAT | YAT

Attawapiskat , Ontario , Canada

Sunday, January 26th, 2020 | 20:04

Weather

CYAT 270025Z AUTO 03011G18KT 9SM OVC010 M07/M08 A2996 RMK SLP146

Charts

No Charts Available

Gates

No Gates Available

Runways

No Runways Available

Events

No events for this airport


New event